createdAt,value
2018-11-28T00:01:42.006Z,102126.69
2018-11-28T00:04:45.973Z,102123.17
2018-11-28T00:07:50.130Z,102119.45
2018-11-28T00:10:54.096Z,102112.27
2018-11-28T00:13:58.054Z,102110.24
2018-11-28T00:17:02.020Z,102111.39
2018-11-28T00:20:10.015Z,102104.93
2018-11-28T00:23:14.163Z,102103.31
2018-11-28T00:26:18.134Z,102102.88
2018-11-28T00:29:22.101Z,102097.77
2018-11-28T00:32:26.084Z,102097.70
2018-11-28T00:35:30.062Z,102090.17
2018-11-28T00:38:34.046Z,102090.61
2018-11-28T00:41:38.011Z,102079.17
2018-11-28T00:44:41.987Z,102093.44
2018-11-28T00:47:46.321Z,102094.98
2018-11-28T00:50:50.287Z,102094.58
2018-11-28T00:53:54.599Z,102096.25
2018-11-28T00:56:58.571Z,102093.15
2018-11-28T01:00:02.531Z,102097.08
2018-11-28T01:03:06.501Z,102094.02
2018-11-28T01:06:10.483Z,102101.19
2018-11-28T01:09:14.453Z,102102.96
2018-11-28T01:12:18.617Z,102100.28
2018-11-28T01:15:22.938Z,102101.81
2018-11-28T01:18:26.923Z,102102.20
2018-11-28T01:21:31.071Z,102100.50
2018-11-28T01:24:35.043Z,102100.11
2018-11-28T01:27:39.027Z,102103.78
2018-11-28T01:30:43.002Z,102108.01
2018-11-28T01:33:46.971Z,102103.38
2018-11-28T01:36:50.946Z,102100.28
2018-11-28T01:39:54.936Z,102103.23
2018-11-28T01:42:59.094Z,102108.34
2018-11-28T01:46:03.066Z,102108.67
2018-11-28T01:49:07.055Z,102111.84
2018-11-28T01:52:11.040Z,102115.34
2018-11-28T01:55:16.622Z,102111.17
2018-11-28T01:58:20.585Z,102108.47
2018-11-28T02:01:24.566Z,102105.48
2018-11-28T02:04:29.042Z,102108.88
2018-11-28T02:07:33.022Z,102103.80
2018-11-28T02:10:37.006Z,102101.41
2018-11-28T02:13:41.005Z,102100.13
2018-11-28T02:16:44.978Z,102099.78
2018-11-28T02:19:48.958Z,102087.50
2018-11-28T02:22:52.945Z,102087.63
2018-11-28T02:25:57.259Z,102086.21
2018-11-28T02:29:01.252Z,102090.52
2018-11-28T02:32:05.268Z,102086.31
2018-11-28T02:35:10.568Z,102091.59
2018-11-28T02:38:14.547Z,102087.52
2018-11-28T02:41:18.529Z,102087.09
2018-11-28T02:44:22.498Z,102087.22
2018-11-28T02:47:26.688Z,102088.55
2018-11-28T02:50:30.676Z,102084.03
2018-11-28T02:53:35.356Z,102098.09
2018-11-28T02:56:39.521Z,102105.55
2018-11-28T02:59:43.683Z,102106.97
2018-11-28T03:02:47.694Z,102105.52
2018-11-28T03:05:51.653Z,102101.65
2018-11-28T03:08:55.820Z,102112.27
2018-11-28T03:11:59.970Z,102115.94
2018-11-28T03:15:04.246Z,102122.19
2018-11-28T03:18:08.690Z,102112.56
2018-11-28T03:21:12.683Z,102112.75
2018-11-28T03:24:16.691Z,102119.25
2018-11-28T03:27:20.847Z,102116.29
2018-11-28T03:30:32.691Z,102120.98
2018-11-28T03:33:36.660Z,102123.19
2018-11-28T03:36:40.831Z,102131.31
2018-11-28T03:39:44.807Z,102133.84
2018-11-28T03:42:48.784Z,102131.11
2018-11-28T03:45:52.934Z,102130.64
2018-11-28T03:48:56.906Z,102131.44
2018-11-28T03:52:00.891Z,102131.20
2018-11-28T03:55:06.819Z,102128.20
2018-11-28T03:58:11.022Z,102123.48
2018-11-28T04:01:15.167Z,102120.34
2018-11-28T04:04:19.318Z,102127.53
2018-11-28T04:07:23.298Z,102122.75
2018-11-28T04:10:27.294Z,102114.28
2018-11-28T04:13:31.441Z,102109.50
2018-11-28T04:16:35.433Z,102105.45
2018-11-28T04:19:39.586Z,102100.79
2018-11-28T04:22:43.575Z,102087.66
2018-11-28T04:25:47.560Z,102095.28
2018-11-28T04:28:51.522Z,102101.73
2018-11-28T04:31:57.085Z,102090.01
2018-11-28T04:35:01.072Z,102092.34
2018-11-28T04:38:05.235Z,102092.76
2018-11-28T04:41:09.400Z,102090.45
2018-11-28T04:44:13.367Z,102085.84
2018-11-28T04:47:17.338Z,102088.34
2018-11-28T04:50:21.487Z,102089.86
2018-11-28T04:53:25.451Z,102089.01
2018-11-28T04:56:29.620Z,102085.75
2018-11-28T04:59:33.587Z,102075.52
2018-11-28T05:02:37.559Z,102076.70
2018-11-28T05:05:41.542Z,102075.91
2018-11-28T05:08:45.670Z,102083.94
2018-11-28T05:11:49.675Z,102092.41
2018-11-28T05:14:53.638Z,102089.16
2018-11-28T05:17:57.630Z,102097.80
2018-11-28T05:21:01.792Z,102094.72
2018-11-28T05:24:05.763Z,102099.70
2018-11-28T05:27:09.748Z,102105.63
2018-11-28T05:30:15.571Z,102104.27
2018-11-28T05:33:19.735Z,102104.75
2018-11-28T05:36:23.738Z,102100.20
2018-11-28T05:39:27.715Z,102099.96
2018-11-28T05:42:31.686Z,102098.85
2018-11-28T05:45:35.677Z,102094.72
2018-11-28T05:48:39.650Z,102099.08
2018-11-28T05:51:43.622Z,102096.56
2018-11-28T05:54:47.625Z,102103.05
2018-11-28T05:57:51.596Z,102098.80
2018-11-28T06:00:55.751Z,102098.42
2018-11-28T06:03:59.725Z,102103.59
2018-11-28T06:07:03.715Z,102104.41
2018-11-28T06:10:08.330Z,102103.30
2018-11-28T06:13:12.319Z,102106.36
2018-11-28T06:16:16.626Z,102098.50
2018-11-28T06:19:20.630Z,102101.28
2018-11-28T06:22:25.016Z,102113.82
2018-11-28T06:25:29.001Z,102107.05
2018-11-28T06:28:32.978Z,102106.83
2018-11-28T06:31:36.967Z,102110.92
2018-11-28T06:34:40.938Z,102106.89
2018-11-28T06:37:44.922Z,102104.69
2018-11-28T06:40:48.890Z,102111.63
2018-11-28T06:43:52.859Z,102112.38
2018-11-28T06:46:57.002Z,102112.00
2018-11-28T06:50:00.984Z,102117.70
2018-11-28T06:53:05.370Z,102118.86
2018-11-28T06:56:09.333Z,102123.12
2018-11-28T06:59:13.478Z,102134.39
2018-11-28T07:02:17.442Z,102131.97
2018-11-28T07:05:22.168Z,102130.17
2018-11-28T07:08:26.126Z,102132.43
2018-11-28T07:11:30.098Z,102132.72
2018-11-28T07:14:34.249Z,102135.75
2018-11-28T07:17:38.435Z,102135.91
2018-11-28T07:20:42.386Z,102140.75
2018-11-28T07:23:46.540Z,102137.73
2018-11-28T07:26:50.683Z,102134.93
2018-11-28T07:29:54.642Z,102131.15
2018-11-28T07:32:58.698Z,102128.91
2018-11-28T07:36:02.671Z,102124.56
2018-11-28T07:39:06.868Z,102118.27
2018-11-28T07:42:11.010Z,102120.81
2018-11-28T07:45:15.318Z,102115.71
2018-11-28T07:48:19.266Z,102121.09
2018-11-28T07:51:23.222Z,102120.27
2018-11-28T07:54:27.188Z,102116.46
2018-11-28T07:57:31.330Z,102115.15
2018-11-28T08:00:36.183Z,102119.78
2018-11-28T08:03:40.146Z,102121.19
2018-11-28T08:06:44.098Z,102125.72
2018-11-28T08:09:48.050Z,102114.05
2018-11-28T08:12:55.211Z,102113.31
2018-11-28T08:15:59.594Z,102122.23
2018-11-28T08:19:03.557Z,102122.23
2018-11-28T08:22:07.851Z,102122.64
2018-11-28T08:25:13.825Z,102119.79
2018-11-28T08:28:17.802Z,102116.53
2018-11-28T08:31:22.114Z,102117.09
2018-11-28T08:34:26.085Z,102116.27
2018-11-28T08:37:30.055Z,102122.54
2018-11-28T08:40:34.194Z,102121.28
2018-11-28T08:43:38.163Z,102124.77
2018-11-28T08:46:42.123Z,102122.30
2018-11-28T08:49:46.078Z,102124.52
2018-11-28T08:52:50.038Z,102124.66
2018-11-28T08:55:53.994Z,102121.70
2018-11-28T08:58:57.964Z,102117.14
2018-11-28T09:02:01.921Z,102113.48
2018-11-28T09:05:06.221Z,102103.91
2018-11-28T09:08:10.186Z,102108.91
2018-11-28T09:11:14.165Z,102100.56
2018-11-28T09:14:18.112Z,102106.52
2018-11-28T09:17:22.277Z,102126.38
2018-11-28T09:20:26.565Z,102129.31
2018-11-28T09:23:30.854Z,102117.14
2018-11-28T09:26:34.826Z,102121.11
2018-11-28T09:29:38.799Z,102119.90
2018-11-28T09:32:43.014Z,102109.78
2018-11-28T09:35:46.991Z,102102.61
2018-11-28T09:38:50.954Z,102104.29
2018-11-28T09:41:54.922Z,102101.37
2018-11-28T09:44:58.885Z,102097.20
2018-11-28T09:48:03.187Z,102098.11
2018-11-28T09:51:07.950Z,102094.84
2018-11-28T09:54:11.918Z,102092.30
2018-11-28T09:57:15.878Z,102093.36
2018-11-28T10:00:21.615Z,102094.19
2018-11-28T10:03:25.574Z,102108.64
2018-11-28T10:06:29.533Z,102107.27
2018-11-28T10:09:33.496Z,102096.44
2018-11-28T10:12:37.776Z,102082.94
2018-11-28T10:15:41.721Z,102088.02
2018-11-28T10:18:45.695Z,102089.69
2018-11-28T10:21:49.655Z,102082.89
2018-11-28T10:24:53.805Z,102072.88
2018-11-28T10:28:03.218Z,102079.19
2018-11-28T10:31:07.211Z,102079.17
2018-11-28T10:34:11.192Z,102063.64
2018-11-28T10:37:15.586Z,102078.48
2018-11-28T10:40:20.960Z,102073.84
2018-11-28T10:43:25.246Z,102059.53
2018-11-28T10:46:29.200Z,102051.95
2018-11-28T10:49:33.336Z,102055.78
2018-11-28T10:52:37.365Z,102045.00
2018-11-28T10:55:41.662Z,102036.96
2018-11-28T10:58:45.631Z,102031.42
2018-11-28T11:01:51.759Z,102038.68
2018-11-28T11:05:01.117Z,102043.77
2018-11-28T11:08:10.534Z,102036.73
2018-11-28T11:11:20.006Z,102039.70
2018-11-28T11:14:29.467Z,102031.26
2018-11-28T11:17:33.426Z,102030.41
2018-11-28T11:20:37.626Z,102027.09
2018-11-28T11:23:41.618Z,102022.87
2018-11-28T11:26:45.574Z,102021.20
2018-11-28T11:29:49.538Z,102020.04
2018-11-28T11:32:53.507Z,102017.52
2018-11-28T11:35:57.453Z,102022.70
2018-11-28T11:39:01.414Z,102018.83
2018-11-28T11:42:06.008Z,102012.08
2018-11-28T11:45:11.570Z,102018.94
2018-11-28T11:48:15.508Z,102011.24
2018-11-28T11:51:19.643Z,102008.86
2018-11-28T11:54:23.593Z,102007.97
2018-11-28T11:57:27.586Z,101998.69
2018-11-28T12:00:32.071Z,102003.34
2018-11-28T12:03:36.208Z,101989.47
2018-11-28T12:06:40.167Z,102003.39
2018-11-28T12:09:44.124Z,101983.11
2018-11-28T12:12:51.715Z,101988.20
2018-11-28T12:15:58.763Z,101974.33
2018-11-28T12:19:03.229Z,101976.44
2018-11-28T12:22:07.594Z,101976.86
2018-11-28T12:25:12.322Z,101969.33
2018-11-28T12:28:16.281Z,101965.56
2018-11-28T12:31:20.247Z,101964.70
2018-11-28T12:34:24.211Z,101973.91
2018-11-28T12:37:28.193Z,101975.98
2018-11-28T12:40:37.003Z,101970.48
2018-11-28T12:43:41.290Z,101965.89
2018-11-28T12:46:45.255Z,101964.63
2018-11-28T12:49:49.227Z,101955.77
2018-11-28T12:52:54.629Z,101956.63
2018-11-28T12:56:05.795Z,101947.48
2018-11-28T12:59:09.758Z,101952.98
2018-11-28T13:02:13.710Z,101944.59
2018-11-28T13:05:20.721Z,101945.81
2018-11-28T13:08:24.692Z,101941.66
2018-11-28T13:11:28.659Z,101933.55
2018-11-28T13:14:32.627Z,101937.38
2018-11-28T13:17:36.610Z,101926.09
2018-11-28T13:20:41.926Z,101930.27
2018-11-28T13:23:45.887Z,101916.00
2018-11-28T13:26:50.031Z,101918.92
2018-11-28T13:29:53.998Z,101913.45
2018-11-28T13:32:57.964Z,101913.89
2018-11-28T13:36:01.950Z,101910.09
2018-11-28T13:39:06.842Z,101905.52
2018-11-28T13:42:10.992Z,101908.58
2018-11-28T13:45:18.941Z,101903.45
2018-11-28T13:48:22.913Z,101905.53
2018-11-28T13:51:26.878Z,101903.47
2018-11-28T13:54:30.834Z,101904.31
2018-11-28T13:57:34.807Z,101892.91
2018-11-28T14:00:38.954Z,101902.59
2018-11-28T14:03:42.930Z,101900.91
2018-11-28T14:06:46.902Z,101897.52
2018-11-28T14:09:50.889Z,101893.75
2018-11-28T14:12:55.202Z,101881.52
2018-11-28T14:15:59.170Z,101881.48
2018-11-28T14:19:03.148Z,101881.93
2018-11-28T14:22:07.441Z,101874.80
2018-11-28T14:25:12.883Z,101863.84
2018-11-28T14:28:17.205Z,101868.95
2018-11-28T14:31:21.167Z,101878.24
2018-11-28T14:34:25.477Z,101869.68
2018-11-28T14:37:29.443Z,101877.72
2018-11-28T14:40:34.095Z,101871.75
2018-11-28T14:43:38.066Z,101873.43
2018-11-28T14:46:42.029Z,101872.62
2018-11-28T14:49:45.999Z,101872.56
2018-11-28T14:52:50.046Z,101867.56
2018-11-28T14:55:54.019Z,101870.87
2018-11-28T14:58:57.990Z,101865.81
2018-11-28T15:02:02.282Z,101861.94
2018-11-28T15:05:12.270Z,101864.13
2018-11-28T15:08:17.889Z,101868.34
2018-11-28T15:11:21.858Z,101867.89
2018-11-28T15:14:25.885Z,101854.83
2018-11-28T15:17:29.800Z,101861.14
2018-11-28T15:20:33.946Z,101849.77
2018-11-28T15:23:38.385Z,101854.33
2018-11-28T15:26:42.354Z,101849.34
2018-11-28T15:29:46.333Z,101845.91
2018-11-28T15:32:50.306Z,101844.61
2018-11-28T15:35:54.300Z,101831.90
2018-11-28T15:38:58.448Z,101828.52
2018-11-28T15:42:02.411Z,101826.80
2018-11-28T15:45:08.123Z,101824.69
2018-11-28T15:48:12.236Z,101822.98
2018-11-28T15:51:16.207Z,101814.16
2018-11-28T15:54:20.173Z,101816.72
2018-11-28T15:57:24.330Z,101816.70
2018-11-28T16:00:28.285Z,101808.23
2018-11-28T16:03:32.923Z,101805.59
2018-11-28T16:06:36.883Z,101799.70
2018-11-28T16:09:46.115Z,101803.95
2018-11-28T16:12:50.763Z,101797.52
2018-11-28T16:15:56.047Z,101795.41
2018-11-28T16:19:00.012Z,101806.89
2018-11-28T16:22:04.547Z,101804.70
2018-11-28T16:25:10.282Z,101808.88
2018-11-28T16:28:14.262Z,101808.12
2018-11-28T16:31:18.414Z,101808.06
2018-11-28T16:34:22.715Z,101806.05
2018-11-28T16:37:27.050Z,101792.55
2018-11-28T16:40:31.367Z,101799.30
2018-11-28T16:43:35.327Z,101797.53
2018-11-28T16:46:39.309Z,101793.80
2018-11-28T16:49:43.265Z,101789.20
2018-11-28T16:52:47.828Z,101771.48
2018-11-28T16:55:51.792Z,101782.03
2018-11-28T16:58:55.929Z,101786.25
2018-11-28T17:01:59.910Z,101772.32
2018-11-28T17:05:04.495Z,101780.73
2018-11-28T17:08:09.521Z,101781.51
2018-11-28T17:11:13.663Z,101773.91
2018-11-28T17:14:17.634Z,101778.55
2018-11-28T17:17:21.610Z,101775.25
2018-11-28T17:20:26.826Z,101768.05
2018-11-28T17:23:30.794Z,101772.31
2018-11-28T17:26:34.758Z,101763.45
2018-11-28T17:29:38.730Z,101757.48
2018-11-28T17:32:42.726Z,101751.59
2018-11-28T17:35:46.663Z,101757.17
2018-11-28T17:38:50.631Z,101752.94
2018-11-28T17:41:54.786Z,101753.80
2018-11-28T17:44:58.758Z,101736.98
2018-11-28T17:48:03.066Z,101737.34
2018-11-28T17:51:07.031Z,101735.61
2018-11-28T17:54:11.006Z,101718.40
2018-11-28T17:57:15.141Z,101726.41
2018-11-28T18:00:20.306Z,101720.95
2018-11-28T18:03:24.439Z,101712.09
2018-11-28T18:06:28.402Z,101710.44
2018-11-28T18:09:32.358Z,101702.41
2018-11-28T18:12:36.319Z,101695.70
2018-11-28T18:15:48.158Z,101702.01
2018-11-28T18:18:52.126Z,101689.36
2018-11-28T18:21:56.152Z,101676.35
2018-11-28T18:25:00.387Z,101673.01
2018-11-28T18:28:04.689Z,101677.20
2018-11-28T18:31:08.477Z,101686.05
2018-11-28T18:34:12.446Z,101691.52
2018-11-28T18:37:16.430Z,101687.73
2018-11-28T18:40:20.401Z,101688.58
2018-11-28T18:43:24.535Z,101693.22
2018-11-28T18:46:28.532Z,101723.11
2018-11-28T18:49:32.685Z,101718.92
2018-11-28T18:52:36.687Z,101710.91
2018-11-28T18:55:40.658Z,101719.75
2018-11-28T18:58:44.613Z,101721.91
2018-11-28T19:01:50.290Z,101725.70
2018-11-28T19:04:54.602Z,101721.06
2018-11-28T19:07:58.562Z,101722.75
2018-11-28T19:11:03.115Z,101716.00
2018-11-28T19:14:12.199Z,101704.20
2018-11-28T19:17:11.350Z,101700.46
2018-11-28T19:20:16.441Z,101680.62
2018-11-28T19:23:20.399Z,101687.40
2018-11-28T19:26:24.396Z,101676.04
2018-11-28T19:29:28.373Z,101678.51
2018-11-28T19:32:32.655Z,101680.25
2018-11-28T19:35:36.657Z,101681.50
2018-11-28T19:38:40.610Z,101668.80
2018-11-28T19:41:44.570Z,101665.45
2018-11-28T19:44:48.531Z,101660.39
2018-11-28T19:47:52.491Z,101645.21
2018-11-28T19:50:56.626Z,101635.94
2018-11-28T19:54:00.592Z,101628.84
2018-11-28T19:57:04.558Z,101631.36
2018-11-28T20:00:15.241Z,101633.42
2018-11-28T20:03:19.198Z,101618.31
2018-11-28T20:06:23.474Z,101607.80
2018-11-28T20:09:27.434Z,101602.73
2018-11-28T20:12:31.393Z,101614.52
2018-11-28T20:15:35.346Z,101623.78
2018-11-28T20:18:39.648Z,101629.27
2018-11-28T20:21:43.607Z,101612.41
2018-11-28T20:24:47.570Z,101620.44
2018-11-28T20:27:54.121Z,101621.74
2018-11-28T20:30:58.094Z,101612.91
2018-11-28T20:34:02.398Z,101609.52
2018-11-28T20:37:06.359Z,101601.92
2018-11-28T20:40:15.213Z,101602.36
2018-11-28T20:43:19.354Z,101611.64
2018-11-28T20:46:23.408Z,101610.80
2018-11-28T20:49:27.647Z,101596.48
2018-11-28T20:52:31.604Z,101587.66
2018-11-28T20:55:35.791Z,101593.52
2018-11-28T20:58:40.102Z,101587.62
2018-11-28T21:01:44.077Z,101572.44
2018-11-28T21:04:48.031Z,101569.48
2018-11-28T21:07:52.166Z,101550.52
2018-11-28T21:10:56.132Z,101563.16
2018-11-28T21:14:00.105Z,101557.70
2018-11-28T21:17:04.070Z,101555.58
2018-11-28T21:20:11.607Z,101560.64
2018-11-28T21:23:17.048Z,101562.75
2018-11-28T21:26:21.018Z,101552.64
2018-11-28T21:29:24.971Z,101553.06
2018-11-28T21:32:28.962Z,101555.20
2018-11-28T21:35:35.248Z,101543.83
2018-11-28T21:38:39.227Z,101536.24
2018-11-28T21:41:43.198Z,101540.88
2018-11-28T21:44:47.193Z,101535.39
2018-11-28T21:47:51.197Z,101529.48
2018-11-28T21:50:55.153Z,101529.91
2018-11-28T21:53:59.108Z,101526.92
2018-11-28T21:57:03.071Z,101536.20
2018-11-28T22:00:10.791Z,101543.78
2018-11-28T22:03:14.952Z,101537.04
2018-11-28T22:06:18.909Z,101535.77
2018-11-28T22:09:22.879Z,101533.66
2018-11-28T22:12:26.841Z,101526.91
2018-11-28T22:15:30.800Z,101532.39
2018-11-28T22:18:34.759Z,101529.02
2018-11-28T22:21:38.725Z,101528.98
2018-11-28T22:24:42.678Z,101536.19
2018-11-28T22:27:46.978Z,101528.96
2018-11-28T22:30:50.952Z,101527.29
2018-11-28T22:33:54.917Z,101525.17
2018-11-28T22:36:58.907Z,101526.43
2018-11-28T22:40:02.918Z,101527.70
2018-11-28T22:43:06.883Z,101520.48
2018-11-28T22:46:10.830Z,101517.95
2018-11-28T22:49:14.803Z,101508.70
2018-11-28T22:52:18.758Z,101514.64
2018-11-28T22:55:22.729Z,101519.28
2018-11-28T22:58:26.695Z,101509.21
2018-11-28T23:01:38.875Z,101487.67
2018-11-28T23:04:42.834Z,101489.83
2018-11-28T23:07:46.794Z,101486.84
2018-11-28T23:10:51.758Z,101478.87
2018-11-28T23:13:55.718Z,101467.91
2018-11-28T23:16:59.670Z,101464.12
2018-11-28T23:20:03.882Z,101448.52
2018-11-28T23:23:08.479Z,101447.72
2018-11-28T23:26:12.441Z,101452.31
2018-11-28T23:29:16.578Z,101451.89
2018-11-28T23:32:20.543Z,101449.37
2018-11-28T23:35:25.332Z,101449.40
2018-11-28T23:38:29.294Z,101458.64
2018-11-28T23:41:33.266Z,101454.88
2018-11-28T23:44:37.238Z,101436.75
2018-11-28T23:47:41.209Z,101436.36
2018-11-28T23:50:45.358Z,101432.12
2018-11-28T23:53:49.321Z,101415.67
2018-11-28T23:56:53.291Z,101417.36
2018-11-28T23:59:57.505Z,101405.56
